createdAt,value
2022-10-29T00:00:21.448Z,19.59
2022-10-29T00:01:21.525Z,19.59
2022-10-29T00:02:21.455Z,19.58
2022-10-29T00:03:21.469Z,19.59
2022-10-29T00:04:21.389Z,19.62
2022-10-29T00:05:21.387Z,19.59
2022-10-29T00:06:21.382Z,19.62
2022-10-29T00:07:21.360Z,19.62
2022-10-29T00:08:21.367Z,19.62
2022-10-29T00:09:21.357Z,19.63
2022-10-29T00:10:21.333Z,19.63
2022-10-29T00:11:21.316Z,19.63
2022-10-29T00:12:21.314Z,19.63
2022-10-29T00:13:21.299Z,19.63
2022-10-29T00:14:21.280Z,19.64
2022-10-29T00:15:21.307Z,19.66
2022-10-29T00:16:21.299Z,19.64
2022-10-29T00:17:21.244Z,19.66
2022-10-29T00:18:21.253Z,19.64
2022-10-29T00:19:21.269Z,19.66
2022-10-29T00:20:21.271Z,19.64
2022-10-29T00:21:21.217Z,19.66
2022-10-29T00:22:21.187Z,19.66
2022-10-29T00:23:21.174Z,19.66
2022-10-29T00:24:21.165Z,19.67
2022-10-29T00:25:21.164Z,19.67
2022-10-29T00:26:21.168Z,19.67
2022-10-29T00:27:21.136Z,19.67
2022-10-29T00:28:21.130Z,19.67
2022-10-29T00:29:21.146Z,19.67
2022-10-29T00:30:21.107Z,19.67
2022-10-29T00:31:21.141Z,19.69
2022-10-29T00:32:21.096Z,19.69
2022-10-29T00:33:21.168Z,19.70
2022-10-29T00:34:21.086Z,19.70
2022-10-29T00:35:21.048Z,19.69
2022-10-29T00:36:21.064Z,19.70
2022-10-29T00:37:21.086Z,19.71
2022-10-29T00:38:21.056Z,19.70
2022-10-29T00:39:21.044Z,19.71
2022-10-29T00:40:20.999Z,19.71
2022-10-29T00:41:21.027Z,19.70
2022-10-29T00:42:20.988Z,19.71
2022-10-29T00:43:20.995Z,19.71
2022-10-29T00:44:20.947Z,19.71
2022-10-29T00:45:20.927Z,19.71
2022-10-29T00:46:20.938Z,19.73
2022-10-29T00:47:20.950Z,19.71
2022-10-29T00:48:20.974Z,19.73
2022-10-29T00:49:20.907Z,19.73
2022-10-29T00:50:20.888Z,19.73
2022-10-29T00:51:20.876Z,19.73
2022-10-29T00:52:20.853Z,19.74
2022-10-29T00:53:20.906Z,19.73
2022-10-29T00:54:20.854Z,19.74
2022-10-29T00:55:20.845Z,19.74
2022-10-29T00:56:20.824Z,19.76
2022-10-29T00:57:20.835Z,19.74
2022-10-29T00:58:20.818Z,19.74
2022-10-29T00:59:20.783Z,19.74
2022-10-29T01:00:20.782Z,19.74
2022-10-29T01:01:20.895Z,19.76
2022-10-29T01:02:20.904Z,19.76
2022-10-29T01:03:20.776Z,19.76
2022-10-29T01:04:20.722Z,19.76
2022-10-29T01:05:20.746Z,19.77
2022-10-29T01:06:20.738Z,19.76
2022-10-29T01:07:20.701Z,19.77
2022-10-29T01:08:20.702Z,19.77
2022-10-29T01:09:20.695Z,19.77
2022-10-29T01:10:20.676Z,19.79
2022-10-29T01:11:20.652Z,19.77
2022-10-29T01:12:20.651Z,19.79
2022-10-29T01:13:20.681Z,19.77
2022-10-29T01:14:20.612Z,19.77
2022-10-29T01:15:20.615Z,19.79
2022-10-29T01:16:20.614Z,19.79
2022-10-29T01:17:20.596Z,19.79
2022-10-29T01:18:20.587Z,19.81
2022-10-29T01:19:20.668Z,19.79
2022-10-29T01:20:20.593Z,19.79
2022-10-29T01:21:20.537Z,19.79
2022-10-29T01:22:20.543Z,19.79
2022-10-29T01:23:20.554Z,19.79
2022-10-29T01:24:20.552Z,19.79
2022-10-29T01:25:20.524Z,19.79
2022-10-29T01:26:20.526Z,19.81
2022-10-29T01:27:20.499Z,19.79
2022-10-29T01:28:20.535Z,19.81
2022-10-29T01:29:20.493Z,19.81
2022-10-29T01:30:20.464Z,19.81
2022-10-29T01:31:20.506Z,19.82
2022-10-29T01:32:20.451Z,19.79
2022-10-29T01:33:20.420Z,19.81
2022-10-29T01:34:20.453Z,19.82
2022-10-29T01:35:20.931Z,19.82
2022-10-29T01:36:20.380Z,19.81
2022-10-29T01:37:20.414Z,19.82
2022-10-29T01:38:20.370Z,19.82
2022-10-29T01:39:20.362Z,19.82
2022-10-29T01:40:20.608Z,19.82
2022-10-29T01:41:20.363Z,19.82
2022-10-29T01:42:20.345Z,19.82
2022-10-29T01:44:20.289Z,19.84
2022-10-29T01:45:20.305Z,19.82
2022-10-29T01:46:20.294Z,19.82
2022-10-29T01:47:20.280Z,19.82
2022-10-29T01:48:20.261Z,19.79
2022-10-29T01:49:20.260Z,19.81
2022-10-29T01:50:20.244Z,19.79
2022-10-29T01:51:20.227Z,19.77
2022-10-29T01:52:20.238Z,19.76
2022-10-29T01:53:20.209Z,19.76
2022-10-29T01:54:20.219Z,19.76
2022-10-29T01:55:20.190Z,19.76
2022-10-29T01:56:20.221Z,19.77
2022-10-29T01:57:20.171Z,19.74
2022-10-29T01:58:20.164Z,19.74
2022-10-29T01:59:35.256Z,19.73
2022-10-29T02:00:21.119Z,19.73
2022-10-29T02:01:20.250Z,19.74
2022-10-29T02:02:20.121Z,19.74
2022-10-29T02:03:20.142Z,19.73
2022-10-29T02:04:20.088Z,19.73
2022-10-29T02:05:20.112Z,19.71
2022-10-29T02:06:20.082Z,19.71
2022-10-29T02:07:20.067Z,19.71
2022-10-29T02:08:20.043Z,19.71
2022-10-29T02:09:20.026Z,19.70
2022-10-29T02:10:20.008Z,19.71
2022-10-29T02:11:20.034Z,19.70
2022-10-29T02:12:20.019Z,19.70
2022-10-29T02:13:19.995Z,19.69
2022-10-29T02:14:19.957Z,19.69
2022-10-29T02:15:19.959Z,19.70
2022-10-29T02:16:19.946Z,19.69
2022-10-29T02:17:19.954Z,19.69
2022-10-29T02:18:19.928Z,19.69
2022-10-29T02:19:19.917Z,19.70
2022-10-29T02:20:19.913Z,19.69
2022-10-29T02:21:19.894Z,19.67
2022-10-29T02:22:19.904Z,19.67
2022-10-29T02:23:19.919Z,19.67
2022-10-29T02:24:19.879Z,19.69
2022-10-29T02:25:19.896Z,19.67
2022-10-29T02:26:19.836Z,19.69
2022-10-29T02:27:19.849Z,19.67
2022-10-29T02:29:19.803Z,19.67
2022-10-29T02:30:19.787Z,19.66
2022-10-29T02:31:19.778Z,19.67
2022-10-29T02:32:19.794Z,19.66
2022-10-29T02:33:19.755Z,19.66
2022-10-29T02:34:19.772Z,19.67
2022-10-29T02:35:19.789Z,19.67
2022-10-29T02:36:19.740Z,19.66
2022-10-29T02:37:19.735Z,19.67
2022-10-29T02:38:19.740Z,19.67
2022-10-29T02:39:19.734Z,19.66
2022-10-29T02:40:19.723Z,19.66
2022-10-29T02:41:19.685Z,19.66
2022-10-29T02:42:19.656Z,19.64
2022-10-29T02:44:19.669Z,19.66
2022-10-29T02:45:19.633Z,19.66
2022-10-29T02:46:19.639Z,19.66
2022-10-29T02:47:19.640Z,19.64
2022-10-29T02:48:19.628Z,19.66
2022-10-29T02:49:19.617Z,19.66
2022-10-29T02:50:19.592Z,19.64
2022-10-29T02:51:19.573Z,19.66
2022-10-29T02:52:19.573Z,19.66
2022-10-29T02:53:19.553Z,19.64
2022-10-29T02:54:19.553Z,19.64
2022-10-29T02:55:19.513Z,19.64
2022-10-29T02:56:19.538Z,19.64
2022-10-29T02:57:19.538Z,19.64
2022-10-29T02:58:19.517Z,19.63
2022-10-29T02:59:19.473Z,19.63
2022-10-29T03:00:19.496Z,19.63
2022-10-29T03:01:19.600Z,19.64
2022-10-29T03:02:19.638Z,19.63
2022-10-29T03:03:19.447Z,19.63
2022-10-29T03:04:19.459Z,19.63
2022-10-29T03:05:19.433Z,19.63
2022-10-29T03:06:19.406Z,19.63
2022-10-29T03:07:19.405Z,19.63
2022-10-29T03:08:19.411Z,19.63
2022-10-29T03:09:19.372Z,19.63
2022-10-29T03:10:19.376Z,19.62
2022-10-29T03:11:19.366Z,19.62
2022-10-29T03:12:19.352Z,19.63
2022-10-29T03:13:19.332Z,19.62
2022-10-29T03:14:19.344Z,19.62
2022-10-29T03:15:19.326Z,19.62
2022-10-29T03:16:19.311Z,19.62
2022-10-29T03:17:19.282Z,19.62
2022-10-29T03:18:19.289Z,19.62
2022-10-29T03:19:19.284Z,19.62
2022-10-29T03:20:19.262Z,19.62
2022-10-29T03:21:19.257Z,19.62
2022-10-29T03:22:19.256Z,19.62
2022-10-29T03:23:19.276Z,19.59
2022-10-29T03:24:19.211Z,19.62
2022-10-29T03:25:19.256Z,19.62
2022-10-29T03:26:19.221Z,19.59
2022-10-29T03:27:19.227Z,19.62
2022-10-29T03:28:19.196Z,19.62
2022-10-29T03:29:19.153Z,19.59
2022-10-29T03:30:19.163Z,19.62
2022-10-29T03:31:19.150Z,19.62
2022-10-29T03:32:19.131Z,19.59
2022-10-29T03:33:19.126Z,19.62
2022-10-29T03:34:19.163Z,19.62
2022-10-29T03:35:19.081Z,19.59
2022-10-29T03:36:19.187Z,19.59
2022-10-29T03:37:19.060Z,19.59
2022-10-29T03:38:19.051Z,19.62
2022-10-29T03:39:19.043Z,19.59
2022-10-29T03:40:19.036Z,19.62
2022-10-29T03:41:19.040Z,19.59
2022-10-29T03:42:19.014Z,19.59
2022-10-29T03:43:19.000Z,19.59
2022-10-29T03:44:19.014Z,19.59
2022-10-29T03:45:18.979Z,19.59
2022-10-29T03:46:18.982Z,19.59
2022-10-29T03:47:18.979Z,19.58
2022-10-29T03:48:18.959Z,19.58
2022-10-29T03:49:18.951Z,19.56
2022-10-29T03:50:18.929Z,19.58
2022-10-29T03:51:18.923Z,19.58
2022-10-29T03:52:18.955Z,19.58
2022-10-29T03:53:18.917Z,19.58
2022-10-29T03:54:18.908Z,19.58
2022-10-29T03:55:18.889Z,19.59
2022-10-29T03:56:18.860Z,19.56
2022-10-29T03:57:18.863Z,19.58
2022-10-29T03:58:18.839Z,19.58
2022-10-29T03:59:18.849Z,19.58
2022-10-29T04:00:18.821Z,19.56
2022-10-29T04:01:18.867Z,19.58
2022-10-29T04:02:18.924Z,19.56
2022-10-29T04:03:18.800Z,19.56
2022-10-29T04:04:18.834Z,19.58
2022-10-29T04:05:18.782Z,19.56
2022-10-29T04:06:18.759Z,19.56
2022-10-29T04:07:18.792Z,19.56
2022-10-29T04:08:18.761Z,19.56
2022-10-29T04:09:18.752Z,19.56
2022-10-29T04:10:18.727Z,19.58
2022-10-29T04:11:18.723Z,19.55
2022-10-29T04:12:18.720Z,19.56
2022-10-29T04:13:18.681Z,19.56
2022-10-29T04:14:18.691Z,19.56
2022-10-29T04:15:18.687Z,19.56
2022-10-29T04:16:18.649Z,19.55
2022-10-29T04:17:18.652Z,19.55
2022-10-29T04:18:18.627Z,19.56
2022-10-29T04:19:18.630Z,19.56
2022-10-29T04:20:41.309Z,19.55
2022-10-29T04:28:02.934Z,19.55
2022-10-29T04:29:19.527Z,19.55
2022-10-29T04:30:18.524Z,19.56
2022-10-29T04:31:18.502Z,19.56
2022-10-29T04:32:18.515Z,19.55
2022-10-29T04:33:18.469Z,19.56
2022-10-29T04:34:18.469Z,19.55
2022-10-29T04:35:18.463Z,19.58
2022-10-29T04:36:18.451Z,19.56
2022-10-29T04:37:18.441Z,19.56
2022-10-29T04:38:18.405Z,19.56
2022-10-29T04:39:21.013Z,19.56
2022-10-29T04:40:19.390Z,19.55
2022-10-29T04:41:18.370Z,19.55
2022-10-29T04:42:18.379Z,19.56
2022-10-29T04:43:18.385Z,19.55
2022-10-29T04:44:18.375Z,19.56
2022-10-29T04:45:18.349Z,19.55
2022-10-29T04:46:18.316Z,19.55
2022-10-29T04:47:18.315Z,19.56
2022-10-29T04:48:18.293Z,19.55
2022-10-29T04:49:18.387Z,19.55
2022-10-29T04:50:18.312Z,19.55
2022-10-29T04:51:18.298Z,19.55
2022-10-29T04:52:18.289Z,19.55
2022-10-29T04:53:18.261Z,19.55
2022-10-29T04:54:18.250Z,19.55
2022-10-29T04:55:18.224Z,19.55
2022-10-29T04:56:18.241Z,19.55
2022-10-29T04:57:18.218Z,19.55
2022-10-29T04:58:18.213Z,19.55
2022-10-29T04:59:18.188Z,19.54
2022-10-29T05:00:18.902Z,19.54
2022-10-29T05:01:18.338Z,19.54
2022-10-29T05:02:18.172Z,19.54
2022-10-29T05:03:18.151Z,19.55
2022-10-29T05:04:18.124Z,19.55
2022-10-29T05:05:18.123Z,19.54
2022-10-29T05:06:18.124Z,19.54
2022-10-29T05:07:18.083Z,19.54
2022-10-29T05:08:18.082Z,19.54
2022-10-29T05:09:18.115Z,19.54
2022-10-29T05:10:18.086Z,19.54
2022-10-29T05:11:18.044Z,19.52
2022-10-29T05:12:18.090Z,19.54
2022-10-29T05:13:18.073Z,19.54
2022-10-29T05:14:18.039Z,19.54
2022-10-29T05:15:18.007Z,19.55
2022-10-29T05:16:17.994Z,19.54
2022-10-29T05:17:17.995Z,19.52
2022-10-29T05:18:25.015Z,19.51
2022-10-29T05:19:17.954Z,19.54
2022-10-29T05:20:17.981Z,19.54
2022-10-29T05:21:17.933Z,19.54
2022-10-29T05:22:17.931Z,19.52
2022-10-29T05:23:17.928Z,19.52
2022-10-29T05:24:17.933Z,19.52
2022-10-29T05:25:17.906Z,19.52
2022-10-29T05:26:17.895Z,19.52
2022-10-29T05:27:17.886Z,19.52
2022-10-29T05:28:17.861Z,19.52
2022-10-29T05:29:17.843Z,19.51
2022-10-29T05:30:17.840Z,19.51
2022-10-29T05:31:17.838Z,19.51
2022-10-29T05:32:17.834Z,19.51
2022-10-29T05:33:17.801Z,19.51
2022-10-29T05:34:17.842Z,19.51
2022-10-29T05:35:17.810Z,19.51
2022-10-29T05:36:17.786Z,19.51
2022-10-29T05:37:17.751Z,19.52
2022-10-29T05:38:17.787Z,19.51
2022-10-29T05:39:17.774Z,19.51
2022-10-29T05:40:17.750Z,19.49
2022-10-29T05:41:17.765Z,19.51
2022-10-29T05:42:17.712Z,19.49
2022-10-29T05:43:17.704Z,19.51
2022-10-29T05:44:17.745Z,19.51
2022-10-29T05:45:17.712Z,19.49
2022-10-29T05:46:17.674Z,19.49
2022-10-29T05:47:17.670Z,19.49
2022-10-29T05:48:17.651Z,19.51
2022-10-29T05:49:17.633Z,19.49
2022-10-29T05:50:17.645Z,19.49
2022-10-29T05:51:17.619Z,19.51
2022-10-29T05:52:17.617Z,19.49
2022-10-29T05:53:17.584Z,19.49
2022-10-29T05:54:17.594Z,19.51
2022-10-29T05:55:17.583Z,19.49
2022-10-29T05:56:17.578Z,19.49
2022-10-29T05:57:17.573Z,19.49
2022-10-29T05:58:17.539Z,19.49
2022-10-29T05:59:17.530Z,19.49
2022-10-29T06:00:17.524Z,19.49
2022-10-29T06:01:17.668Z,19.49
2022-10-29T06:02:17.597Z,19.49
2022-10-29T06:03:17.479Z,19.49
2022-10-29T06:04:17.468Z,19.49
2022-10-29T06:05:17.459Z,19.49
2022-10-29T06:06:17.535Z,19.48
2022-10-29T06:07:17.504Z,19.49
2022-10-29T06:08:17.439Z,19.48
2022-10-29T06:09:17.420Z,19.48
2022-10-29T06:10:17.408Z,19.49
2022-10-29T06:11:17.414Z,19.48
2022-10-29T06:12:17.402Z,19.49
2022-10-29T06:13:17.379Z,19.49
2022-10-29T06:14:17.365Z,19.47
2022-10-29T06:15:17.358Z,19.49
2022-10-29T06:16:17.348Z,19.48
2022-10-29T06:17:17.339Z,19.49
2022-10-29T06:18:17.322Z,19.49
2022-10-29T06:19:17.320Z,19.48
2022-10-29T06:20:17.324Z,19.49
2022-10-29T06:21:17.287Z,19.48
2022-10-29T06:22:17.302Z,19.48
2022-10-29T06:23:17.283Z,19.48
2022-10-29T06:24:17.272Z,19.48
2022-10-29T06:25:17.266Z,19.47
2022-10-29T06:26:17.237Z,19.48
2022-10-29T06:27:17.230Z,19.48
2022-10-29T06:28:17.216Z,19.48
2022-10-29T06:29:17.219Z,19.47
2022-10-29T06:30:17.201Z,19.47
2022-10-29T06:31:17.179Z,19.47
2022-10-29T06:32:17.180Z,19.47
2022-10-29T06:33:17.160Z,19.47
2022-10-29T06:34:17.176Z,19.48
2022-10-29T06:35:17.126Z,19.48
2022-10-29T06:36:17.143Z,19.47
2022-10-29T06:37:17.128Z,19.48
2022-10-29T06:38:17.096Z,19.47
2022-10-29T06:39:17.109Z,19.47
2022-10-29T06:40:17.095Z,19.48
2022-10-29T06:41:17.077Z,19.47
2022-10-29T06:42:17.057Z,19.48
2022-10-29T06:43:17.069Z,19.47
2022-10-29T06:44:17.059Z,19.47
2022-10-29T06:45:17.032Z,19.47
2022-10-29T06:46:17.030Z,19.45
2022-10-29T06:47:17.036Z,19.47
2022-10-29T06:48:21.733Z,19.47
2022-10-29T06:49:18.081Z,19.45
2022-10-29T06:50:17.005Z,19.47
2022-10-29T06:51:17.051Z,19.45
2022-10-29T06:52:16.949Z,19.45
2022-10-29T06:53:16.937Z,19.45
2022-10-29T06:54:16.937Z,19.47
2022-10-29T06:55:16.918Z,19.45
2022-10-29T06:56:16.941Z,19.45
2022-10-29T06:57:16.909Z,19.45
2022-10-29T06:58:16.885Z,19.44
2022-10-29T06:59:16.867Z,19.47
2022-10-29T07:00:16.868Z,19.45
2022-10-29T07:01:16.926Z,19.44
2022-10-29T07:02:16.860Z,19.45
2022-10-29T07:03:16.834Z,19.45
2022-10-29T07:04:16.845Z,19.45
2022-10-29T07:05:16.828Z,19.45
2022-10-29T07:06:16.857Z,19.45
2022-10-29T07:07:16.831Z,19.44
2022-10-29T07:08:16.794Z,19.45
2022-10-29T07:09:16.849Z,19.45
2022-10-29T07:10:16.767Z,19.44
2022-10-29T07:11:16.758Z,19.44
2022-10-29T07:12:16.756Z,19.45
2022-10-29T07:13:16.742Z,19.47
2022-10-29T07:14:16.709Z,19.45
2022-10-29T07:15:16.718Z,19.45
2022-10-29T07:16:16.683Z,19.45
2022-10-29T07:17:16.693Z,19.45
2022-10-29T07:18:16.663Z,19.44
2022-10-29T07:19:16.663Z,19.45
2022-10-29T07:20:16.658Z,19.45
2022-10-29T07:21:16.634Z,19.44
2022-10-29T07:22:16.623Z,19.44
2022-10-29T07:23:16.653Z,19.44
2022-10-29T07:24:16.637Z,19.45
2022-10-29T07:25:16.608Z,19.44
2022-10-29T07:26:16.685Z,19.44
2022-10-29T07:27:16.638Z,19.44
2022-10-29T07:28:16.586Z,19.45
2022-10-29T07:29:16.554Z,19.44
2022-10-29T07:30:16.530Z,19.44
2022-10-29T07:31:16.541Z,19.44
2022-10-29T07:32:16.507Z,19.44
2022-10-29T07:33:16.529Z,19.44
2022-10-29T07:34:16.518Z,19.44
2022-10-29T07:35:16.486Z,19.44
2022-10-29T07:36:16.478Z,19.44
2022-10-29T07:37:16.478Z,19.41
2022-10-29T07:38:16.444Z,19.44
2022-10-29T07:39:16.468Z,19.44
2022-10-29T07:40:16.437Z,19.44
2022-10-29T07:41:16.425Z,19.41
2022-10-29T07:42:16.413Z,19.44
2022-10-29T07:43:16.408Z,19.44
2022-10-29T07:44:16.396Z,19.44
2022-10-29T07:45:16.398Z,19.41
2022-10-29T07:46:16.353Z,19.44
2022-10-29T07:47:16.372Z,19.44
2022-10-29T07:48:16.348Z,19.41
2022-10-29T07:49:16.331Z,19.44
2022-10-29T07:50:16.350Z,19.41
2022-10-29T07:51:16.327Z,19.44
2022-10-29T07:52:16.315Z,19.41
2022-10-29T07:53:16.286Z,19.44
2022-10-29T07:54:16.290Z,19.41
2022-10-29T07:55:16.387Z,19.44
2022-10-29T07:56:16.276Z,19.44
2022-10-29T07:57:16.260Z,19.41
2022-10-29T07:58:16.278Z,19.44
2022-10-29T07:59:16.224Z,19.44
2022-10-29T08:00:16.215Z,19.44
2022-10-29T08:01:16.337Z,19.44
2022-10-29T08:02:16.227Z,19.45
2022-10-29T08:03:16.186Z,19.44
2022-10-29T08:04:16.161Z,19.44
2022-10-29T08:05:16.175Z,19.44
2022-10-29T08:06:16.169Z,19.45
2022-10-29T08:07:16.131Z,19.45
2022-10-29T08:08:16.122Z,19.47
2022-10-29T08:09:16.115Z,19.44
2022-10-29T08:10:16.115Z,19.45
2022-10-29T08:11:16.102Z,19.45
2022-10-29T08:12:16.090Z,19.44
2022-10-29T08:13:16.118Z,19.45
2022-10-29T08:14:18.899Z,19.45
2022-10-29T08:15:16.055Z,19.44
2022-10-29T08:16:16.041Z,19.45
2022-10-29T08:17:16.029Z,19.47
2022-10-29T08:18:16.021Z,19.45
2022-10-29T08:19:16.002Z,19.45
2022-10-29T08:20:15.995Z,19.45
2022-10-29T08:21:16.005Z,19.45
2022-10-29T08:22:15.976Z,19.45
2022-10-29T08:23:15.980Z,19.47
2022-10-29T08:24:15.944Z,19.47
2022-10-29T08:25:15.967Z,19.47
2022-10-29T08:26:15.922Z,19.45
2022-10-29T08:27:15.957Z,19.45
2022-10-29T08:28:15.921Z,19.45
2022-10-29T08:29:15.930Z,19.45
2022-10-29T08:30:15.964Z,19.47
2022-10-29T08:31:15.879Z,19.45
2022-10-29T08:32:15.876Z,19.47
2022-10-29T08:33:15.861Z,19.47
2022-10-29T08:34:15.839Z,19.47
2022-10-29T08:35:15.926Z,19.45
2022-10-29T08:36:15.842Z,19.45
2022-10-29T08:37:15.817Z,19.45
2022-10-29T08:38:15.797Z,19.47
2022-10-29T08:39:15.834Z,19.45
2022-10-29T08:40:15.782Z,19.47
2022-10-29T08:41:15.781Z,19.45
2022-10-29T08:42:15.763Z,19.45
2022-10-29T08:43:15.747Z,19.48
2022-10-29T08:44:15.741Z,19.45
2022-10-29T08:45:15.754Z,19.45
2022-10-29T08:46:15.732Z,19.47
2022-10-29T08:47:15.716Z,19.47
2022-10-29T08:48:15.685Z,19.47
2022-10-29T08:49:15.685Z,19.47
2022-10-29T08:50:15.669Z,19.48
2022-10-29T08:51:15.662Z,19.48
2022-10-29T08:52:15.653Z,19.48
2022-10-29T08:53:24.089Z,19.48
2022-10-29T08:54:30.384Z,19.48
2022-10-29T08:55:16.629Z,19.48
2022-10-29T08:56:15.621Z,19.49
2022-10-29T08:57:15.601Z,19.51
2022-10-29T08:58:15.595Z,19.51
2022-10-29T08:59:15.596Z,19.51
2022-10-29T09:00:15.561Z,19.52
2022-10-29T09:01:15.639Z,19.52
2022-10-29T09:02:15.714Z,19.52
2022-10-29T09:03:15.550Z,19.52
2022-10-29T09:04:15.542Z,19.54
2022-10-29T09:05:15.517Z,19.54
2022-10-29T09:06:15.506Z,19.54
2022-10-29T09:07:15.529Z,19.54
2022-10-29T09:08:15.478Z,19.54
2022-10-29T09:09:15.477Z,19.55
2022-10-29T09:10:15.438Z,19.55
2022-10-29T09:11:15.488Z,19.55
2022-10-29T09:12:15.428Z,19.55
2022-10-29T09:13:15.417Z,19.56
2022-10-29T09:14:15.438Z,19.56
2022-10-29T09:15:15.418Z,19.56
2022-10-29T09:16:15.396Z,19.56
2022-10-29T09:17:15.772Z,19.56
2022-10-29T09:18:15.386Z,19.55
2022-10-29T09:19:15.617Z,19.56
2022-10-29T09:20:15.340Z,19.58
2022-10-29T09:21:15.341Z,19.56
2022-10-29T09:22:15.340Z,19.58
2022-10-29T09:23:15.316Z,19.58
2022-10-29T09:24:15.322Z,19.58
2022-10-29T09:25:15.310Z,19.58
2022-10-29T09:26:15.321Z,19.56
2022-10-29T09:27:15.279Z,19.58
2022-10-29T09:28:15.258Z,19.58
2022-10-29T09:29:15.255Z,19.58
2022-10-29T09:30:15.235Z,19.58
2022-10-29T09:31:15.235Z,19.59
2022-10-29T09:32:15.216Z,19.62
2022-10-29T09:33:15.204Z,19.62
2022-10-29T09:34:15.207Z,19.62
2022-10-29T09:35:15.182Z,19.59
2022-10-29T09:36:15.168Z,19.62
2022-10-29T09:37:15.189Z,19.63
2022-10-29T09:38:15.160Z,19.62
2022-10-29T09:39:15.142Z,19.64
2022-10-29T09:40:15.139Z,19.64
2022-10-29T09:41:15.149Z,19.64
2022-10-29T09:42:15.129Z,19.66
2022-10-29T09:43:15.120Z,19.66
2022-10-29T09:44:15.089Z,19.66
2022-10-29T09:45:15.071Z,19.67
2022-10-29T09:46:15.064Z,19.66
2022-10-29T09:47:15.067Z,19.67
2022-10-29T09:48:15.060Z,19.69
2022-10-29T09:49:15.060Z,19.67
2022-10-29T09:50:15.026Z,19.70
2022-10-29T09:51:15.027Z,19.69
2022-10-29T09:52:15.064Z,19.69
2022-10-29T09:53:14.997Z,19.69
2022-10-29T09:54:15.002Z,19.70
2022-10-29T09:55:14.978Z,19.69
2022-10-29T09:56:14.953Z,19.70
2022-10-29T09:57:14.962Z,19.71
2022-10-29T09:58:14.958Z,19.70
2022-10-29T09:59:14.954Z,19.69
2022-10-29T10:00:14.913Z,19.71
2022-10-29T10:01:14.973Z,19.70
2022-10-29T10:02:14.923Z,19.70
2022-10-29T10:03:14.923Z,19.69
2022-10-29T10:04:14.887Z,19.69
2022-10-29T10:05:14.883Z,19.70
2022-10-29T10:06:14.858Z,19.70
2022-10-29T10:07:14.833Z,19.69
2022-10-29T10:08:14.821Z,19.69
2022-10-29T10:09:14.813Z,19.69
2022-10-29T10:10:14.803Z,19.69
2022-10-29T10:11:15.033Z,19.69
2022-10-29T10:12:14.785Z,19.69
2022-10-29T10:13:17.167Z,19.69
2022-10-29T10:14:15.443Z,19.69
2022-10-29T10:15:14.753Z,19.69
2022-10-29T10:16:14.745Z,19.67
2022-10-29T10:17:14.749Z,19.67
2022-10-29T10:18:14.723Z,19.67
2022-10-29T10:19:14.732Z,19.69
2022-10-29T10:20:14.708Z,19.67
2022-10-29T10:21:14.722Z,19.69
2022-10-29T10:22:16.349Z,19.69
2022-10-29T10:23:14.686Z,19.67
2022-10-29T10:24:14.644Z,19.67
2022-10-29T10:25:14.715Z,19.66
2022-10-29T10:26:14.621Z,19.67
2022-10-29T10:27:14.612Z,19.66
2022-10-29T10:28:14.625Z,19.64
2022-10-29T10:29:14.606Z,19.66
2022-10-29T10:30:14.603Z,19.64
2022-10-29T10:31:14.586Z,19.64
2022-10-29T10:32:14.576Z,19.64
2022-10-29T10:33:14.593Z,19.64
2022-10-29T10:34:14.553Z,19.64
2022-10-29T10:35:14.522Z,19.63
2022-10-29T10:36:14.526Z,19.64
2022-10-29T10:37:14.524Z,19.63
2022-10-29T10:38:14.542Z,19.64
2022-10-29T10:39:14.515Z,19.64
2022-10-29T10:40:14.483Z,19.63
2022-10-29T10:41:14.481Z,19.64
2022-10-29T10:42:14.447Z,19.64
2022-10-29T10:43:14.467Z,19.66
2022-10-29T10:44:14.734Z,19.64
2022-10-29T10:45:14.480Z,19.66
2022-10-29T10:46:14.435Z,19.66
2022-10-29T10:47:14.413Z,19.67
2022-10-29T10:48:14.444Z,19.66
2022-10-29T10:49:14.407Z,19.67
2022-10-29T10:50:14.503Z,19.69
2022-10-29T10:51:14.394Z,19.70
2022-10-29T10:52:14.343Z,19.71
2022-10-29T10:53:14.353Z,19.73
2022-10-29T10:54:14.399Z,19.76
2022-10-29T10:55:14.317Z,19.73
2022-10-29T10:56:14.421Z,19.74
2022-10-29T10:57:14.318Z,19.74
2022-10-29T10:58:14.692Z,19.76
2022-10-29T10:59:14.319Z,19.76
2022-10-29T11:00:14.257Z,19.76
2022-10-29T11:01:14.404Z,19.77
2022-10-29T11:02:14.288Z,19.79
2022-10-29T11:03:14.319Z,19.81
2022-10-29T11:04:14.208Z,19.82
2022-10-29T11:05:14.224Z,19.82
2022-10-29T11:06:14.217Z,19.81
2022-10-29T11:07:14.197Z,19.84
2022-10-29T11:08:14.170Z,19.84
2022-10-29T11:09:14.176Z,19.85
2022-10-29T11:10:14.147Z,19.85
2022-10-29T11:11:14.969Z,19.86
2022-10-29T11:12:14.138Z,19.86
2022-10-29T11:13:14.218Z,19.86
2022-10-29T11:14:14.232Z,19.88
2022-10-29T11:15:14.100Z,19.89
2022-10-29T11:16:14.079Z,19.88
2022-10-29T11:17:14.092Z,19.89
2022-10-29T11:18:14.202Z,19.89
2022-10-29T11:19:14.061Z,19.91
2022-10-29T11:20:14.184Z,19.91
2022-10-29T11:21:14.051Z,19.91
2022-10-29T11:22:14.023Z,19.91
2022-10-29T11:23:14.021Z,19.92
2022-10-29T11:24:14.006Z,19.92
2022-10-29T11:25:14.023Z,19.94
2022-10-29T11:26:13.977Z,19.94
2022-10-29T11:27:13.990Z,19.92
2022-10-29T11:28:13.980Z,19.92
2022-10-29T11:29:13.950Z,19.94
2022-10-29T11:30:13.940Z,19.94
2022-10-29T11:31:13.930Z,19.96
2022-10-29T11:32:13.916Z,19.96
2022-10-29T11:34:13.886Z,19.99
2022-10-29T11:35:13.902Z,19.96
2022-10-29T11:36:13.926Z,20.02
2022-10-29T11:37:13.876Z,20.00
2022-10-29T11:38:13.835Z,20.00
2022-10-29T11:39:13.849Z,20.02
2022-10-29T11:40:13.908Z,20.00
2022-10-29T11:41:13.824Z,20.00
2022-10-29T11:42:13.839Z,20.00
2022-10-29T11:43:13.812Z,20.00
2022-10-29T11:44:13.818Z,20.02
2022-10-29T11:45:13.768Z,20.02
2022-10-29T11:46:13.822Z,20.02
2022-10-29T11:47:13.776Z,20.03
2022-10-29T11:48:16.529Z,20.02
2022-10-29T11:49:14.800Z,20.04
2022-10-29T11:50:13.822Z,20.06
2022-10-29T11:51:14.410Z,20.07
2022-10-29T11:52:13.694Z,20.09
2022-10-29T11:53:13.695Z,20.09
2022-10-29T11:54:13.719Z,20.10
2022-10-29T11:55:13.654Z,20.11
2022-10-29T11:56:13.685Z,20.11
2022-10-29T11:57:13.651Z,20.13
2022-10-29T11:58:13.649Z,20.13
2022-10-29T11:59:13.637Z,20.13
2022-10-29T12:00:13.691Z,20.16
2022-10-29T12:01:13.643Z,20.16
2022-10-29T12:02:13.599Z,20.16
2022-10-29T12:03:13.585Z,20.18
2022-10-29T12:04:14.915Z,20.16
2022-10-29T12:05:13.565Z,20.19
2022-10-29T12:06:13.594Z,20.19
2022-10-29T12:07:13.565Z,20.19
2022-10-29T12:08:13.515Z,20.21
2022-10-29T12:09:13.527Z,20.22
2022-10-29T12:10:13.523Z,20.22
2022-10-29T12:11:14.676Z,20.24
2022-10-29T12:12:13.484Z,20.24
2022-10-29T12:13:13.728Z,20.24
2022-10-29T12:14:13.463Z,20.25
2022-10-29T12:15:13.468Z,20.25
2022-10-29T12:16:14.179Z,20.25
2022-10-29T12:17:13.462Z,20.28
2022-10-29T12:18:14.109Z,20.26
2022-10-29T12:19:13.403Z,20.26
2022-10-29T12:20:13.423Z,20.28
2022-10-29T12:21:13.388Z,20.28
2022-10-29T12:22:13.376Z,20.29
2022-10-29T12:23:15.174Z,20.29
2022-10-29T12:24:13.518Z,20.29
2022-10-29T12:25:13.330Z,20.29
2022-10-29T12:26:13.335Z,20.31
2022-10-29T12:27:13.526Z,20.29
2022-10-29T12:28:13.341Z,20.31
2022-10-29T12:29:13.306Z,20.32
2022-10-29T12:30:13.317Z,20.32
2022-10-29T12:31:13.273Z,20.32
2022-10-29T12:32:13.321Z,20.32
2022-10-29T12:33:13.252Z,20.32
2022-10-29T12:34:13.249Z,20.32
2022-10-29T12:35:13.221Z,20.32
2022-10-29T12:36:13.235Z,20.29
2022-10-29T12:37:13.288Z,20.29
2022-10-29T12:38:13.212Z,20.29
2022-10-29T12:39:13.194Z,20.31
2022-10-29T12:40:13.172Z,20.29
2022-10-29T12:41:13.161Z,20.29
2022-10-29T12:42:13.171Z,20.29
2022-10-29T12:43:13.133Z,20.29
2022-10-29T12:44:13.136Z,20.28
2022-10-29T12:45:13.483Z,20.28
2022-10-29T12:46:21.113Z,20.28
2022-10-29T12:47:14.104Z,20.28
2022-10-29T12:48:13.105Z,20.28
2022-10-29T12:49:13.107Z,20.26
2022-10-29T12:50:13.055Z,20.28
2022-10-29T12:51:13.039Z,20.28
2022-10-29T12:52:13.044Z,20.26
2022-10-29T12:53:13.034Z,20.28
2022-10-29T12:54:13.026Z,20.28
2022-10-29T12:55:13.009Z,20.28
2022-10-29T12:56:16.235Z,20.28
2022-10-29T12:57:12.980Z,20.26
2022-10-29T12:58:12.983Z,20.25
2022-10-29T12:59:12.950Z,20.25
2022-10-29T13:00:12.959Z,20.25
2022-10-29T13:01:13.057Z,20.26
2022-10-29T13:02:13.164Z,20.25
2022-10-29T13:03:12.987Z,20.25